Time;durP1;ratioP1;P1;durP2;ratioP2;P2;SDS_P1;SDS_P2;PMS_P1;PMS_P2;Temp;Humidity;BMP_temperature;BMP_pressure;BME280_temperature;BME280_humidity;BME280_pressure;Samples;Min_cycle;Max_cycle;Signal;HPM_P1;HPM_P2
2021/09/03 00:01:20;;;;;;;45.58;22.27;;;;;;;;;;5113505;28;20031;-69
2021/09/03 00:03:46;;;;;;;42.15;21.17;;;;;;;;;;5112793;28;20400;-69
2021/09/03 00:06:13;;;;;;;48.30;20.35;;;;;;;;;;5086833;28;20491;-70
2021/09/03 00:08:39;;;;;;;39.22;20.58;;;;;;;;;;5111366;28;20028;-70
2021/09/03 00:11:05;;;;;;;47.17;21.98;;;;;;;;;;5113410;28;20054;-70
2021/09/03 00:13:31;;;;;;;46.78;22.33;;;;;;;;;;5112657;28;20089;-70
2021/09/03 00:15:57;;;;;;;44.88;20.92;;;;;;;;;;5112599;28;20028;-70
2021/09/03 00:18:23;;;;;;;36.85;19.38;;;;;;;;;;5111361;28;20030;-70
2021/09/03 00:20:49;;;;;;;43.97;20.20;;;;;;;;;;5094262;28;20090;-69
2021/09/03 00:23:16;;;;;;;38.72;20.00;;;;;;;;;;5110958;28;20035;-70
2021/09/03 00:25:42;;;;;;;45.53;21.05;;;;;;;;;;5094587;28;20012;-70
2021/09/03 00:28:08;;;;;;;37.50;19.42;;;;;;;;;;5110947;28;20027;-70
2021/09/03 00:30:34;;;;;;;42.92;21.90;;;;;;;;;;5112260;28;20024;-69
2021/09/03 00:33:00;;;;;;;48.55;20.95;;;;;;;;;;5090209;28;20028;-69
2021/09/03 00:35:26;;;;;;;33.78;18.33;;;;;;;;;;5083187;28;20118;-70
2021/09/03 00:37:52;;;;;;;50.97;22.05;;;;;;;;;;5111458;28;21057;-70
2021/09/03 00:40:18;;;;;;;39.63;18.73;;;;;;;;;;5112349;28;20614;-70
2021/09/03 00:42:45;;;;;;;43.53;21.73;;;;;;;;;;5093301;28;20067;-70
2021/09/03 00:45:11;;;;;;;44.33;21.52;;;;;;;;;;5112652;28;20039;-70
2021/09/03 00:47:37;;;;;;;43.72;21.70;;;;;;;;;;5111462;28;20035;-70
2021/09/03 00:50:04;;;;;;;45.85;22.13;;;;;;;;;;5072175;28;1088431;-70
2021/09/03 00:52:30;;;;;;;49.13;24.40;;;;;;;;;;5090598;28;20051;-69
2021/09/03 00:55:00;;;;;;;47.25;21.88;;;;;;;;;;5112826;28;20424;-70
2021/09/03 00:57:26;;;;;;;51.50;22.58;;;;;;;;;;5113590;28;20038;-69
2021/09/03 00:59:54;;;;;;;46.17;20.65;;;;;;;;;;5111590;28;20024;-70
2021/09/03 01:02:23;;;;;;;46.30;22.63;;;;;;;;;;5113868;28;20028;-70
2021/09/03 01:04:49;;;;;;;47.50;23.90;;;;;;;;;;5113390;28;20050;-69
2021/09/03 01:07:15;;;;;;;45.47;22.73;;;;;;;;;;5108806;27;20031;-70
2021/09/03 01:09:42;;;;;;;43.90;22.50;;;;;;;;;;5092371;28;20058;-70
2021/09/03 01:12:08;;;;;;;41.42;20.73;;;;;;;;;;5112834;28;20030;-70
2021/09/03 01:14:34;;;;;;;45.40;21.83;;;;;;;;;;5113480;28;20028;-70
2021/09/03 01:17:02;;;;;;;48.92;26.35;;;;;;;;;;5113426;28;20107;-70
2021/09/03 01:19:28;;;;;;;43.95;21.75;;;;;;;;;;5111439;28;20023;-70
2021/09/03 01:21:54;;;;;;;58.78;23.75;;;;;;;;;;5111393;28;20160;-70
2021/09/03 01:24:20;;;;;;;51.65;23.75;;;;;;;;;;5094288;28;20039;-70
2021/09/03 01:26:46;;;;;;;48.00;23.45;;;;;;;;;;5112439;28;20537;-69
2021/09/03 01:29:13;;;;;;;55.58;23.70;;;;;;;;;;5110133;28;20023;-70
2021/09/03 01:31:40;;;;;;;43.67;21.95;;;;;;;;;;5093622;28;20016;-70
2021/09/03 01:34:06;;;;;;;54.45;25.25;;;;;;;;;;5112878;28;20027;-70
2021/09/03 01:36:32;;;;;;;54.85;24.17;;;;;;;;;;5112310;28;20023;-70
2021/09/03 01:38:59;;;;;;;47.80;23.75;;;;;;;;;;5111333;28;20130;-70
2021/09/03 01:41:25;;;;;;;53.00;24.98;;;;;;;;;;5112250;28;20024;-70
2021/09/03 01:43:52;;;;;;;52.50;25.27;;;;;;;;;;5112719;28;20508;-70
2021/09/03 01:46:18;;;;;;;49.80;23.65;;;;;;;;;;5112643;28;20153;-71
2021/09/03 01:48:44;;;;;;;53.75;25.15;;;;;;;;;;5110668;28;20625;-70
2021/09/03 01:51:10;;;;;;;57.65;26.88;;;;;;;;;;5112519;28;20059;-70
2021/09/03 01:53:36;;;;;;;56.90;27.45;;;;;;;;;;5112237;28;20027;-70
2021/09/03 01:56:02;;;;;;;57.75;27.73;;;;;;;;;;5091983;28;20138;-70
2021/09/03 01:58:28;;;;;;;56.28;25.40;;;;;;;;;;5110838;28;20027;-70
2021/09/03 02:00:54;;;;;;;54.25;23.83;;;;;;;;;;5082142;28;20028;-70
2021/09/03 02:03:20;;;;;;;56.55;25.23;;;;;;;;;;5112398;28;20077;-70
2021/09/03 02:05:46;;;;;;;47.67;21.70;;;;;;;;;;5112121;28;20028;-70
2021/09/03 02:08:12;;;;;;;48.83;23.67;;;;;;;;;;5111008;28;20492;-70
2021/09/03 02:10:38;;;;;;;58.63;25.80;;;;;;;;;;5111124;28;20383;-70
2021/09/03 02:13:04;;;;;;;55.85;24.40;;;;;;;;;;5112196;28;20023;-71
2021/09/03 02:15:31;;;;;;;59.10;27.60;;;;;;;;;;5112119;28;20120;-70
2021/09/03 02:17:57;;;;;;;51.72;25.52;;;;;;;;;;5109603;28;20038;-71
2021/09/03 02:20:23;;;;;;;54.45;27.00;;;;;;;;;;5111974;28;20034;-70
2021/09/03 02:22:49;;;;;;;53.63;24.77;;;;;;;;;;5093724;28;20011;-70
2021/09/03 02:25:15;;;;;;;53.78;25.10;;;;;;;;;;5111691;28;20032;-70
2021/09/03 02:27:41;;;;;;;60.90;24.98;;;;;;;;;;5111338;28;20027;-70
2021/09/03 02:30:08;;;;;;;54.38;25.52;;;;;;;;;;5110267;28;20098;-70
2021/09/03 02:32:34;;;;;;;55.63;24.52;;;;;;;;;;5108417;28;20028;-70
2021/09/03 02:35:00;;;;;;;51.90;25.70;;;;;;;;;;5111679;28;20084;-70
2021/09/03 02:37:26;;;;;;;60.42;26.88;;;;;;;;;;5093069;28;20035;-70
2021/09/03 02:39:52;;;;;;;60.30;28.77;;;;;;;;;;5109896;28;20019;-70
2021/09/03 02:42:18;;;;;;;54.05;26.02;;;;;;;;;;5092777;28;20079;-70
2021/09/03 02:44:44;;;;;;;54.28;27.35;;;;;;;;;;5111221;28;20107;-70
2021/09/03 02:47:10;;;;;;;61.70;28.02;;;;;;;;;;5111207;28;20031;-70
2021/09/03 02:49:36;;;;;;;58.28;28.67;;;;;;;;;;5109392;28;20039;-70
2021/09/03 02:52:03;;;;;;;53.72;27.10;;;;;;;;;;5111166;28;20047;-70
2021/09/03 02:54:29;;;;;;;50.20;27.13;;;;;;;;;;5110661;28;20027;-70
2021/09/03 02:56:55;;;;;;;56.38;27.63;;;;;;;;;;5111437;28;20028;-70
2021/09/03 02:59:21;;;;;;;64.28;26.33;;;;;;;;;;5109557;28;20409;-70
2021/09/03 03:01:47;;;;;;;57.65;26.92;;;;;;;;;;5092280;28;20028;-70
2021/09/03 03:04:13;;;;;;;60.67;27.02;;;;;;;;;;5111301;28;20024;-70
2021/09/03 03:06:39;;;;;;;52.75;27.02;;;;;;;;;;5106294;28;20035;-70
2021/09/03 03:09:05;;;;;;;58.78;28.02;;;;;;;;;;5109341;28;20035;-70
2021/09/03 03:11:31;;;;;;;52.70;26.13;;;;;;;;;;5111234;28;20374;-70
2021/09/03 03:16:49;;;;;;;46.83;24.60;;;;;;;;;;5064921;28;20059;-70
2021/09/03 03:19:15;;;;;;;50.47;25.92;;;;;;;;;;5109091;28;20031;-70
2021/09/03 03:21:41;;;;;;;54.85;26.40;;;;;;;;;;5110042;28;20031;-70
2021/09/03 03:24:07;;;;;;;54.22;25.70;;;;;;;;;;5110337;28;20029;-70
2021/09/03 03:26:33;;;;;;;49.35;26.02;;;;;;;;;;5111140;28;20052;-69
2021/09/03 03:28:59;;;;;;;59.35;27.73;;;;;;;;;;5109320;28;20049;-70
2021/09/03 03:31:25;;;;;;;64.75;30.67;;;;;;;;;;5092303;28;20032;-70
2021/09/03 03:33:51;;;;;;;56.65;28.75;;;;;;;;;;5110242;28;20024;-70
2021/09/03 03:36:17;;;;;;;52.38;26.20;;;;;;;;;;5110857;28;20451;-70
2021/09/03 03:38:43;;;;;;;54.95;26.63;;;;;;;;;;5109274;28;20473;-70
2021/09/03 03:41:09;;;;;;;49.00;25.30;;;;;;;;;;5092319;28;20481;-70
2021/09/03 03:43:36;;;;;;;50.95;26.48;;;;;;;;;;5110333;28;20023;-70
2021/09/03 03:46:02;;;;;;;45.42;23.42;;;;;;;;;;5111061;28;20031;-71
2021/09/03 03:48:28;;;;;;;51.08;25.13;;;;;;;;;;5108524;28;20038;-71
2021/09/03 03:50:54;;;;;;;53.40;28.98;;;;;;;;;;5110378;28;20046;-71
2021/09/03 03:53:20;;;;;;;67.40;29.98;;;;;;;;;;5110289;28;20055;-70
2021/09/03 03:55:47;;;;;;;59.42;28.17;;;;;;;;;;5110786;28;20042;-70
2021/09/03 03:58:13;;;;;;;58.63;28.38;;;;;;;;;;5109041;28;20082;-70
2021/09/03 04:00:39;;;;;;;54.28;27.20;;;;;;;;;;5092153;28;20047;-70
2021/09/03 04:03:05;;;;;;;47.15;27.08;;;;;;;;;;5110330;28;20461;-70
2021/09/03 04:05:31;;;;;;;59.53;29.70;;;;;;;;;;5092397;28;20449;-70
2021/09/03 04:07:57;;;;;;;55.85;28.50;;;;;;;;;;5109445;28;20027;-70
2021/09/03 04:10:23;;;;;;;58.50;29.08;;;;;;;;;;5110392;28;20027;-70
2021/09/03 04:12:49;;;;;;;52.97;29.33;;;;;;;;;;5110002;28;20027;-71
2021/09/03 04:15:16;;;;;;;63.20;30.38;;;;;;;;;;5110542;28;20034;-70
2021/09/03 04:17:42;;;;;;;56.25;29.42;;;;;;;;;;5091254;28;20063;-70
2021/09/03 04:20:08;;;;;;;56.85;28.95;;;;;;;;;;5109759;28;20096;-70
2021/09/03 04:22:35;;;;;;;63.20;29.52;;;;;;;;;;5109534;28;20055;-70
2021/09/03 04:25:01;;;;;;;59.33;28.38;;;;;;;;;;5110696;28;20031;-70
2021/09/03 04:27:27;;;;;;;50.08;26.25;;;;;;;;;;5110764;28;20027;-70
2021/09/03 04:29:53;;;;;;;60.90;31.25;;;;;;;;;;5108041;28;20028;-70
2021/09/03 04:32:19;;;;;;;55.65;30.40;;;;;;;;;;5110290;28;20028;-70
2021/09/03 04:34:45;;;;;;;56.80;29.95;;;;;;;;;;5113284;28;20032;-71
2021/09/03 04:37:12;;;;;;;68.90;32.33;;;;;;;;;;5111294;28;20088;-70
2021/09/03 04:39:38;;;;;;;67.30;36.00;;;;;;;;;;5112061;28;20638;-71
2021/09/03 04:42:04;;;;;;;75.57;36.38;;;;;;;;;;5094029;28;20401;-71
2021/09/03 04:44:31;;;;;;;65.82;35.20;;;;;;;;;;5113599;28;20024;-70
2021/09/03 04:46:57;;;;;;;72.60;33.58;;;;;;;;;;5113243;28;20036;-72
2021/09/03 04:49:23;;;;;;;67.82;35.13;;;;;;;;;;5111872;28;20058;-70
2021/09/03 04:51:49;;;;;;;65.53;32.97;;;;;;;;;;5112504;28;20524;-70
2021/09/03 04:54:15;;;;;;;66.32;34.95;;;;;;;;;;5112248;28;20043;-70
2021/09/03 04:56:42;;;;;;;63.30;33.35;;;;;;;;;;5113800;28;20024;-70
2021/09/03 04:59:08;;;;;;;68.50;34.33;;;;;;;;;;5112120;28;20061;-71
2021/09/03 05:01:34;;;;;;;67.75;33.90;;;;;;;;;;5111975;28;20024;-70
2021/09/03 05:04:00;;;;;;;77.18;34.70;;;;;;;;;;5094871;28;20036;-70
2021/09/03 05:06:26;;;;;;;70.25;33.83;;;;;;;;;;5113406;28;20057;-70
2021/09/03 05:08:53;;;;;;;67.30;35.00;;;;;;;;;;5093201;28;20032;-70
2021/09/03 05:11:19;;;;;;;64.95;32.22;;;;;;;;;;5094111;28;20047;-70
2021/09/03 05:13:45;;;;;;;68.95;32.63;;;;;;;;;;5093555;28;20039;-70
2021/09/03 05:16:11;;;;;;;60.53;32.90;;;;;;;;;;5112971;28;20032;-70
2021/09/03 05:18:37;;;;;;;73.18;33.17;;;;;;;;;;5112148;28;20027;-70
2021/09/03 05:21:03;;;;;;;68.03;33.17;;;;;;;;;;5094208;28;20370;-70
2021/09/03 05:23:29;;;;;;;67.32;31.73;;;;;;;;;;5109678;28;20062;-70
2021/09/03 05:25:55;;;;;;;60.15;31.67;;;;;;;;;;5093757;28;20050;-69
2021/09/03 05:28:21;;;;;;;63.42;33.88;;;;;;;;;;5111699;28;20519;-70
2021/09/03 05:30:47;;;;;;;65.10;32.28;;;;;;;;;;5112806;28;20041;-70
2021/09/03 05:33:14;;;;;;;67.60;30.20;;;;;;;;;;5112873;28;20027;-70
2021/09/03 05:35:40;;;;;;;56.60;28.85;;;;;;;;;;5113258;28;20027;-70
2021/09/03 05:38:06;;;;;;;61.55;30.52;;;;;;;;;;5111437;28;20068;-70
2021/09/03 05:40:32;;;;;;;65.55;32.85;;;;;;;;;;5112980;28;20115;-70
2021/09/03 05:42:59;;;;;;;64.13;31.90;;;;;;;;;;5112724;28;20020;-70
2021/09/03 05:45:25;;;;;;;61.67;32.38;;;;;;;;;;5093762;28;20056;-70
2021/09/03 05:47:51;;;;;;;62.35;32.17;;;;;;;;;;5111571;28;20024;-69
2021/09/03 05:50:17;;;;;;;54.08;28.98;;;;;;;;;;5112383;28;20035;-70
2021/09/03 05:52:43;;;;;;;59.03;29.08;;;;;;;;;;5111967;28;20028;-70
2021/09/03 05:55:10;;;;;;;51.67;30.00;;;;;;;;;;5112594;28;20595;-70
2021/09/03 05:57:36;;;;;;;61.50;30.95;;;;;;;;;;5112265;28;20032;-70
2021/09/03 06:00:02;;;;;;;59.78;31.20;;;;;;;;;;5111368;28;20019;-70
2021/09/03 06:02:28;;;;;;;60.13;28.13;;;;;;;;;;5112053;28;20673;-70
2021/09/03 06:04:54;;;;;;;67.13;31.02;;;;;;;;;;5112418;28;20023;-70
2021/09/03 06:07:20;;;;;;;60.05;29.70;;;;;;;;;;5112164;28;20156;-70
2021/09/03 06:09:46;;;;;;;63.45;31.10;;;;;;;;;;5110448;28;20096;-70
2021/09/03 06:12:12;;;;;;;50.05;28.38;;;;;;;;;;5093842;28;20034;-70
2021/09/03 06:14:38;;;;;;;50.58;29.60;;;;;;;;;;5112138;28;20028;-70
2021/09/03 06:17:05;;;;;;;52.25;29.42;;;;;;;;;;5112184;28;20047;-70
2021/09/03 06:19:31;;;;;;;48.58;26.42;;;;;;;;;;5110450;28;20132;-70
2021/09/03 06:21:58;;;;;;;46.83;25.55;;;;;;;;;;5111863;28;20024;-69
2021/09/03 06:24:31;;;;;;;49.90;27.30;;;;;;;;;;5112361;28;20100;-70
2021/09/03 06:26:59;;;;;;;49.72;25.05;;;;;;;;;;5111549;28;20058;-70
2021/09/03 06:32:04;;;;;;;51.60;27.00;;;;;;;;;;5112011;28;20079;-70
2021/09/03 06:34:30;;;;;;;46.33;26.70;;;;;;;;;;5112003;28;20455;-70
2021/09/03 06:36:57;;;;;;;44.40;25.90;;;;;;;;;;5111761;28;20028;-70
2021/09/03 06:39:23;;;;;;;47.10;27.73;;;;;;;;;;5091503;28;20485;-70
2021/09/03 06:41:49;;;;;;;46.17;24.70;;;;;;;;;;5111557;28;20473;-70
2021/09/03 06:44:16;;;;;;;46.78;24.92;;;;;;;;;;5082791;28;20024;-70
2021/09/03 06:46:42;;;;;;;47.25;26.10;;;;;;;;;;5111127;28;20168;-70
2021/09/03 06:49:08;;;;;;;42.47;25.60;;;;;;;;;;5094782;28;20595;-70
2021/09/03 06:51:34;;;;;;;40.50;23.52;;;;;;;;;;5092875;28;20064;-69
2021/09/03 06:54:00;;;;;;;48.42;25.98;;;;;;;;;;5111406;28;20088;-71
2021/09/03 06:56:26;;;;;;;47.45;25.55;;;;;;;;;;5111453;28;20096;-70
2021/09/03 06:58:52;;;;;;;48.05;26.00;;;;;;;;;;5110228;28;20026;-71
2021/09/03 07:01:18;;;;;;;47.13;26.00;;;;;;;;;;5110676;28;20106;-70
2021/09/03 07:03:45;;;;;;;53.85;27.80;;;;;;;;;;5094708;28;20057;-71
2021/09/03 07:06:11;;;;;;;48.97;24.67;;;;;;;;;;5091514;28;20089;-70
2021/09/03 07:08:37;;;;;;;51.88;27.48;;;;;;;;;;5103704;28;20024;-70
2021/09/03 07:11:03;;;;;;;48.42;26.90;;;;;;;;;;5111026;28;20034;-69
2021/09/03 07:13:30;;;;;;;52.17;26.20;;;;;;;;;;5110949;28;20088;-70
2021/09/03 07:15:56;;;;;;;47.83;27.63;;;;;;;;;;5106173;28;20023;-70
2021/09/03 07:18:22;;;;;;;48.03;27.27;;;;;;;;;;5091667;28;20024;-71
2021/09/03 07:20:48;;;;;;;47.75;27.38;;;;;;;;;;5111085;28;20020;-70
2021/09/03 07:23:14;;;;;;;48.15;25.17;;;;;;;;;;5109769;28;20092;-70
2021/09/03 07:25:40;;;;;;;42.58;24.75;;;;;;;;;;5110413;28;20024;-70
2021/09/03 07:28:06;;;;;;;49.00;24.52;;;;;;;;;;5109520;28;20097;-70
2021/09/03 07:30:32;;;;;;;44.28;26.38;;;;;;;;;;5109317;28;20550;-70
2021/09/03 07:32:58;;;;;;;47.75;25.52;;;;;;;;;;5111393;28;20028;-69
2021/09/03 07:35:24;;;;;;;52.97;28.58;;;;;;;;;;5087936;28;20039;-71
2021/09/03 07:37:51;;;;;;;41.75;25.83;;;;;;;;;;5109495;28;20065;-71
2021/09/03 07:40:17;;;;;;;45.72;26.75;;;;;;;;;;5110822;28;20047;-70
2021/09/03 07:42:44;;;;;;;49.83;27.45;;;;;;;;;;5110346;28;20028;-70
2021/09/03 07:45:10;;;;;;;46.75;26.02;;;;;;;;;;5107547;28;20092;-70
2021/09/03 07:47:36;;;;;;;44.05;27.52;;;;;;;;;;5102416;28;20167;-70
2021/09/03 07:50:02;;;;;;;40.53;24.17;;;;;;;;;;5107248;28;20044;-70
2021/09/03 07:52:28;;;;;;;46.47;28.23;;;;;;;;;;5103138;28;20458;-69
2021/09/03 07:54:54;;;;;;;44.42;26.50;;;;;;;;;;5107295;28;20027;-70
2021/09/03 07:57:21;;;;;;;43.47;24.88;;;;;;;;;;5109930;28;20031;-70
2021/09/03 07:59:47;;;;;;;44.35;24.65;;;;;;;;;;5107491;28;20168;-71
2021/09/03 08:02:13;;;;;;;45.90;25.98;;;;;;;;;;5110471;28;20019;-70
2021/09/03 08:04:39;;;;;;;46.25;27.25;;;;;;;;;;5108268;28;20024;-69
2021/09/03 08:07:05;;;;;;;43.90;26.63;;;;;;;;;;5090552;28;20024;-70
2021/09/03 08:09:31;;;;;;;40.05;25.98;;;;;;;;;;5108829;28;20024;-70
2021/09/03 08:11:57;;;;;;;40.33;24.48;;;;;;;;;;5107724;28;20027;-70
2021/09/03 08:14:23;;;;;;;42.47;25.33;;;;;;;;;;5110889;28;20067;-70
2021/09/03 08:16:49;;;;;;;42.28;26.98;;;;;;;;;;5113707;28;20388;-71
2021/09/03 08:19:15;;;;;;;45.22;26.48;;;;;;;;;;5103816;28;20540;-70
2021/09/03 08:21:41;;;;;;;38.90;23.00;;;;;;;;;;5112806;28;20019;-69
2021/09/03 08:24:07;;;;;;;44.88;26.38;;;;;;;;;;5109857;28;20023;-70
2021/09/03 08:26:33;;;;;;;40.75;27.05;;;;;;;;;;5112820;28;20045;-69
2021/09/03 08:28:59;;;;;;;38.42;25.67;;;;;;;;;;5108750;28;20551;-68
2021/09/03 08:31:25;;;;;;;37.78;26.52;;;;;;;;;;5094990;28;20054;-69
2021/09/03 08:33:52;;;;;;;46.65;26.35;;;;;;;;;;5111650;28;20055;-70
2021/09/03 08:36:18;;;;;;;38.80;24.27;;;;;;;;;;5104521;28;20067;-71
2021/09/03 08:38:44;;;;;;;45.83;24.98;;;;;;;;;;5109673;28;20020;-70
2021/09/03 08:41:10;;;;;;;38.65;24.30;;;;;;;;;;5109118;28;20011;-70
2021/09/03 08:43:36;;;;;;;37.22;24.73;;;;;;;;;;5093316;28;20031;-70
2021/09/03 08:46:02;;;;;;;37.92;22.98;;;;;;;;;;5111807;28;20027;-70
2021/09/03 08:48:28;;;;;;;37.42;25.63;;;;;;;;;;5104060;28;20043;-71
2021/09/03 08:50:56;;;;;;;40.85;26.00;;;;;;;;;;5108259;28;21245;-70
2021/09/03 08:53:22;;;;;;;43.05;25.42;;;;;;;;;;5109574;28;20056;-70
2021/09/03 08:55:50;;;;;;;39.67;25.58;;;;;;;;;;5093171;28;20036;-70
2021/09/03 08:58:16;;;;;;;40.83;25.17;;;;;;;;;;5090466;28;20308;-70
2021/09/03 09:00:42;;;;;;;42.75;26.15;;;;;;;;;;5108385;28;20020;-70
2021/09/03 09:03:15;;;;;;;41.08;25.50;;;;;;;;;;5108274;28;20062;-69
2021/09/03 09:05:44;;;;;;;40.50;24.55;;;;;;;;;;5110987;28;20024;-70
2021/09/03 09:08:10;;;;;;;39.08;22.48;;;;;;;;;;5109737;28;20227;-70
2021/09/03 09:10:36;;;;;;;40.95;24.33;;;;;;;;;;5105029;28;20028;-69
2021/09/03 09:13:12;;;;;;;39.58;22.95;;;;;;;;;;5112851;28;20032;-69
2021/09/03 09:15:38;;;;;;;35.72;23.80;;;;;;;;;;5088392;28;20116;-70
2021/09/03 09:18:04;;;;;;;34.03;22.73;;;;;;;;;;5109794;28;20039;-71
2021/09/03 09:20:31;;;;;;;35.42;22.95;;;;;;;;;;5092449;28;20028;-69
2021/09/03 09:22:58;;;;;;;31.23;22.05;;;;;;;;;;5113250;28;20019;-70
2021/09/03 09:25:26;;;;;;;39.67;23.02;;;;;;;;;;5113126;28;20064;-71
2021/09/03 09:27:52;;;;;;;40.22;25.55;;;;;;;;;;5109471;28;20024;-71
2021/09/03 09:30:19;;;;;;;43.65;24.80;;;;;;;;;;5112164;28;20047;-69
2021/09/03 09:33:05;;;;;;;41.83;26.13;;;;;;;;;;5083562;28;20024;-70
2021/09/03 09:35:31;;;;;;;40.83;24.73;;;;;;;;;;5110600;28;20034;-70
2021/09/03 09:37:57;;;;;;;40.30;24.30;;;;;;;;;;5109777;28;20032;-69
2021/09/03 09:40:24;;;;;;;37.08;22.75;;;;;;;;;;5112544;28;20026;-69
2021/09/03 09:42:50;;;;;;;35.20;24.80;;;;;;;;;;5112483;28;20573;-71
2021/09/03 09:45:16;;;;;;;39.58;22.90;;;;;;;;;;5105930;28;20481;-69
2021/09/03 09:47:43;;;;;;;39.95;24.45;;;;;;;;;;5102909;28;20016;-69
2021/09/03 09:50:42;;;;;;;38.40;24.20;;;;;;;;;;5092578;28;20031;-70
2021/09/03 09:53:09;;;;;;;33.42;22.92;;;;;;;;;;5068998;27;20051;-70
2021/09/03 09:55:36;;;;;;;37.50;22.38;;;;;;;;;;5109933;28;20031;-69
2021/09/03 09:58:02;;;;;;;38.92;24.10;;;;;;;;;;5106347;28;20016;-69
2021/09/03 10:00:28;;;;;;;34.05;23.55;;;;;;;;;;5091184;28;20122;-68
2021/09/03 10:02:55;;;;;;;35.47;24.02;;;;;;;;;;5101661;28;20027;-70
2021/09/03 10:05:21;;;;;;;40.03;24.33;;;;;;;;;;5112074;28;20104;-71
2021/09/03 10:07:47;;;;;;;32.65;22.17;;;;;;;;;;5097700;28;20119;-69
2021/09/03 10:10:14;;;;;;;32.55;21.77;;;;;;;;;;5084001;28;20026;-72
2021/09/03 10:12:40;;;;;;;38.60;23.08;;;;;;;;;;5111531;27;20511;-69
2021/09/03 10:15:06;;;;;;;36.08;22.55;;;;;;;;;;5111282;28;20027;-69
2021/09/03 10:17:33;;;;;;;34.00;22.40;;;;;;;;;;5084186;28;20055;-70
2021/09/03 10:19:59;;;;;;;33.63;23.23;;;;;;;;;;5093286;28;20016;-69
2021/09/03 10:22:27;;;;;;;36.20;22.05;;;;;;;;;;5091832;28;20026;-70
2021/09/03 10:25:06;;;;;;;39.55;25.00;;;;;;;;;;5100587;28;20081;-69
2021/09/03 10:27:32;;;;;;;36.30;21.70;;;;;;;;;;5099419;28;20047;-69
2021/09/03 10:30:11;;;;;;;30.38;22.52;;;;;;;;;;5109369;28;20034;-70
2021/09/03 10:32:37;;;;;;;36.08;23.88;;;;;;;;;;5108994;28;20077;-69
2021/09/03 10:35:13;;;;;;;36.83;22.83;;;;;;;;;;5111256;28;20035;-69
2021/09/03 10:37:39;;;;;;;37.13;22.95;;;;;;;;;;5089224;28;20119;-69
2021/09/03 10:40:10;;;;;;;33.10;21.70;;;;;;;;;;5097653;28;20024;-69
2021/09/03 10:45:11;;;;;;;37.03;22.58;;;;;;;;;;5109734;28;20039;-69
2021/09/03 10:47:47;;;;;;;43.80;24.35;;;;;;;;;;5082700;28;20036;-69
2021/09/03 10:50:47;;;;;;;42.22;27.25;;;;;;;;;;5109212;28;20024;-71
2021/09/03 10:53:15;;;;;;;41.42;26.15;;;;;;;;;;5070327;27;20043;-69
2021/09/03 10:55:59;;;;;;;43.15;27.48;;;;;;;;;;5094258;28;20038;-69
2021/09/03 10:58:37;;;;;;;39.75;25.52;;;;;;;;;;5090518;28;20028;-68
2021/09/03 11:01:13;;;;;;;38.95;24.42;;;;;;;;;;5109135;28;20026;-68
2021/09/03 11:03:43;;;;;;;43.13;25.67;;;;;;;;;;5109823;28;20024;-68
2021/09/03 11:06:12;;;;;;;35.45;22.20;;;;;;;;;;5105014;28;20020;-70
2021/09/03 11:08:41;;;;;;;40.63;22.92;;;;;;;;;;5088005;28;20031;-69
2021/09/03 11:11:26;;;;;;;46.75;25.60;;;;;;;;;;5090916;28;20068;-69
2021/09/03 11:13:54;;;;;;;44.20;25.13;;;;;;;;;;5090779;28;20051;-69
2021/09/03 11:16:37;;;;;;;39.47;25.70;;;;;;;;;;5090810;28;20036;-71
2021/09/03 11:19:04;;;;;;;36.97;23.48;;;;;;;;;;5090269;28;20057;-69
2021/09/03 11:21:31;;;;;;;40.40;25.45;;;;;;;;;;5110632;28;20024;-69
2021/09/03 11:23:57;;;;;;;45.85;28.23;;;;;;;;;;5109104;28;20035;-71
2021/09/03 11:26:24;;;;;;;48.58;26.45;;;;;;;;;;5110743;28;20035;-69
2021/09/03 11:28:50;;;;;;;45.83;26.05;;;;;;;;;;5106089;28;20040;-70
2021/09/03 11:31:16;;;;;;;42.17;26.92;;;;;;;;;;5110301;28;20020;-69
2021/09/03 11:33:46;;;;;;;31.98;22.95;;;;;;;;;;5109839;28;20043;-69
2021/09/03 11:36:13;;;;;;;44.20;25.48;;;;;;;;;;5109230;28;20027;-70
2021/09/03 11:38:39;;;;;;;38.00;23.20;;;;;;;;;;5108164;28;20020;-68
2021/09/03 11:41:09;;;;;;;39.90;24.40;;;;;;;;;;5094703;28;20122;-71
2021/09/03 11:43:36;;;;;;;35.95;23.75;;;;;;;;;;5102318;28;20046;-69
2021/09/03 11:46:14;;;;;;;39.97;23.85;;;;;;;;;;5094443;28;20051;-69
2021/09/03 11:48:40;;;;;;;45.38;28.35;;;;;;;;;;5109440;28;20055;-69
2021/09/03 11:51:06;;;;;;;44.78;28.23;;;;;;;;;;5099946;28;20093;-69
2021/09/03 11:53:34;;;;;;;43.30;27.05;;;;;;;;;;5110289;28;20031;-68
2021/09/03 11:56:00;;;;;;;45.20;26.33;;;;;;;;;;5096635;28;20024;-68
2021/09/03 11:58:26;;;;;;;52.38;27.90;;;;;;;;;;5109252;28;20027;-68
2021/09/03 12:01:00;;;;;;;43.03;25.52;;;;;;;;;;5095794;28;20537;-68
2021/09/03 12:03:35;;;;;;;48.08;26.55;;;;;;;;;;5085540;28;20047;-68
2021/09/03 12:06:03;;;;;;;51.35;27.83;;;;;;;;;;5112509;28;20050;-69
2021/09/03 12:08:31;;;;;;;48.75;30.55;;;;;;;;;;5112167;28;20102;-69
2021/09/03 12:10:58;;;;;;;49.35;26.30;;;;;;;;;;5113907;28;20269;-69
2021/09/03 12:13:28;;;;;;;49.35;26.92;;;;;;;;;;5094432;28;20016;-69
2021/09/03 12:15:59;;;;;;;51.05;28.88;;;;;;;;;;5114161;28;20024;-68
2021/09/03 12:18:35;;;;;;;52.10;29.15;;;;;;;;;;5111915;28;20032;-71
2021/09/03 12:21:03;;;;;;;51.63;26.48;;;;;;;;;;5114277;28;20012;-69
2021/09/03 12:23:34;;;;;;;49.85;26.35;;;;;;;;;;5114450;28;20027;-68
2021/09/03 12:26:08;;;;;;;60.45;29.92;;;;;;;;;;5113790;28;20020;-68
2021/09/03 12:28:34;;;;;;;49.03;28.38;;;;;;;;;;5111421;28;20097;-70
2021/09/03 12:31:04;;;;;;;55.10;28.38;;;;;;;;;;5113634;28;20106;-69
2021/09/03 12:33:31;;;;;;;47.80;26.80;;;;;;;;;;5109382;28;20031;-67
2021/09/03 12:35:58;;;;;;;54.47;29.13;;;;;;;;;;5105806;28;20020;-69
2021/09/03 12:38:35;;;;;;;50.60;26.50;;;;;;;;;;5096556;28;20117;-68
2021/09/03 12:41:08;;;;;;;57.22;28.85;;;;;;;;;;5113826;28;20496;-68
2021/09/03 12:43:35;;;;;;;54.17;28.05;;;;;;;;;;5108100;28;20031;-68
2021/09/03 12:46:08;;;;;;;57.22;29.98;;;;;;;;;;5113830;28;20493;-72
2021/09/03 12:48:34;;;;;;;51.83;27.38;;;;;;;;;;5092350;28;20034;-71
2021/09/03 12:51:00;;;;;;;55.20;29.05;;;;;;;;;;5113268;28;20055;-68
2021/09/03 12:53:26;;;;;;;54.70;29.25;;;;;;;;;;5115636;27;20046;-69
2021/09/03 12:55:52;;;;;;;49.55;28.05;;;;;;;;;;5094329;28;20028;-68
2021/09/03 12:58:18;;;;;;;48.35;24.65;;;;;;;;;;5109102;28;20036;-69
2021/09/03 13:00:45;;;;;;;55.38;29.95;;;;;;;;;;5113178;28;20552;-69
2021/09/03 13:03:11;;;;;;;54.67;29.38;;;;;;;;;;5079839;28;20394;-69
2021/09/03 13:05:38;;;;;;;54.28;26.58;;;;;;;;;;5111790;28;20030;-71
2021/09/03 13:08:05;;;;;;;50.35;26.85;;;;;;;;;;5100366;28;20342;-68
2021/09/03 13:10:31;;;;;;;52.35;26.27;;;;;;;;;;5113396;28;20398;-68
2021/09/03 13:12:57;;;;;;;52.05;31.00;;;;;;;;;;5113895;28;20024;-68
2021/09/03 13:15:23;;;;;;;50.97;26.65;;;;;;;;;;5112972;28;20055;-68
2021/09/03 13:17:50;;;;;;;47.75;26.98;;;;;;;;;;5109571;28;20108;-68
2021/09/03 13:20:16;;;;;;;47.38;25.75;;;;;;;;;;5111790;28;20489;-68
2021/09/03 13:22:42;;;;;;;46.65;25.95;;;;;;;;;;5112536;28;20020;-67
2021/09/03 13:25:08;;;;;;;55.88;29.77;;;;;;;;;;5112937;28;20092;-67
2021/09/03 13:27:35;;;;;;;54.22;28.30;;;;;;;;;;5112614;28;20024;-70
2021/09/03 13:30:01;;;;;;;51.80;28.90;;;;;;;;;;5110255;28;20023;-71
2021/09/03 13:32:27;;;;;;;49.88;25.38;;;;;;;;;;5112507;28;20023;-68
2021/09/03 13:34:53;;;;;;;53.70;25.60;;;;;;;;;;5090695;28;20035;-68
2021/09/03 13:37:20;;;;;;;50.17;26.05;;;;;;;;;;5108241;28;20449;-70
2021/09/03 13:39:46;;;;;;;47.22;24.73;;;;;;;;;;5098546;28;20028;-69
2021/09/03 13:42:13;;;;;;;47.13;25.00;;;;;;;;;;5079958;28;20023;-69
2021/09/03 13:44:40;;;;;;;43.00;24.75;;;;;;;;;;5104589;28;20031;-72
2021/09/03 13:47:06;;;;;;;52.50;25.75;;;;;;;;;;5103544;28;20015;-68
2021/09/03 13:49:32;;;;;;;48.72;24.67;;;;;;;;;;5105359;28;20427;-69
2021/09/03 13:51:58;;;;;;;48.97;25.77;;;;;;;;;;5112848;27;20032;-70
2021/09/03 13:54:24;;;;;;;47.92;22.98;;;;;;;;;;5112372;28;20123;-69
2021/09/03 13:56:50;;;;;;;55.38;24.55;;;;;;;;;;5112107;27;20074;-68
2021/09/03 13:59:17;;;;;;;51.95;24.52;;;;;;;;;;5109843;28;20032;-68
2021/09/03 14:01:43;;;;;;;42.17;25.70;;;;;;;;;;5111205;28;20028;-68
2021/09/03 14:04:09;;;;;;;52.38;25.08;;;;;;;;;;5112255;28;20023;-68
2021/09/03 14:06:35;;;;;;;52.88;24.88;;;;;;;;;;5084985;28;20031;-69
2021/09/03 14:09:02;;;;;;;45.88;25.33;;;;;;;;;;5089398;28;20024;-69
2021/09/03 14:11:28;;;;;;;44.33;23.60;;;;;;;;;;5104224;28;20020;-72
2021/09/03 14:13:54;;;;;;;44.97;22.15;;;;;;;;;;5111961;28;20455;-70
2021/09/03 14:16:20;;;;;;;44.28;22.52;;;;;;;;;;5111530;28;20507;-69
2021/09/03 14:18:46;;;;;;;39.47;19.88;;;;;;;;;;5109373;28;20403;-70
2021/09/03 14:21:12;;;;;;;48.10;20.27;;;;;;;;;;5111670;28;20027;-68
2021/09/03 14:23:39;;;;;;;46.08;21.02;;;;;;;;;;5109890;28;20024;-70